createdAt,value
2023-07-02T00:00:03.130Z,0
2023-07-02T00:03:28.349Z,0
2023-07-02T00:06:53.470Z,0
2023-07-02T00:10:18.631Z,0
2023-07-02T00:13:43.814Z,0
2023-07-02T00:17:09.032Z,0
2023-07-02T00:20:34.175Z,0
2023-07-02T00:23:59.309Z,0
2023-07-02T00:27:24.491Z,0
2023-07-02T00:30:49.849Z,0
2023-07-02T00:34:14.801Z,0
2023-07-02T00:37:39.991Z,0
2023-07-02T00:41:05.114Z,0
2023-07-02T00:44:30.297Z,0
2023-07-02T00:47:55.507Z,0
2023-07-02T00:51:20.623Z,0
2023-07-02T00:54:45.883Z,0
2023-07-02T00:58:11.026Z,0
2023-07-02T01:01:36.236Z,0
2023-07-02T01:05:02.336Z,0
2023-07-02T01:08:26.524Z,0
2023-07-02T01:11:51.788Z,0
2023-07-02T01:15:16.888Z,0
2023-07-02T01:18:42.091Z,0
2023-07-02T01:22:07.259Z,0
2023-07-02T01:25:32.442Z,0
2023-07-02T01:28:57.616Z,0
2023-07-02T01:32:23.000Z,0
2023-07-02T01:35:47.973Z,0
2023-07-02T01:39:13.147Z,0
2023-07-02T01:42:38.313Z,0
2023-07-02T01:46:03.543Z,0
2023-07-02T01:49:28.676Z,0
2023-07-02T01:52:53.838Z,0
2023-07-02T01:56:19.008Z,0
2023-07-02T01:59:44.233Z,0
2023-07-02T02:03:09.551Z,0
2023-07-02T02:06:34.601Z,0
2023-07-02T02:09:59.768Z,0
2023-07-02T02:13:24.994Z,0
2023-07-02T02:16:50.183Z,0
2023-07-02T02:20:15.329Z,0
2023-07-02T02:23:40.478Z,0
2023-07-02T02:27:05.661Z,0
2023-07-02T02:30:30.836Z,0
2023-07-02T02:33:56.049Z,0
2023-07-02T02:37:21.287Z,0
2023-07-02T02:40:46.586Z,0
2023-07-02T02:44:11.644Z,0
2023-07-02T02:47:36.843Z,0
2023-07-02T02:51:02.002Z,0
2023-07-02T02:54:27.179Z,0
2023-07-02T02:57:52.310Z,0
2023-07-02T03:01:17.520Z,0
2023-07-02T03:04:42.745Z,0
2023-07-02T03:08:07.832Z,0
2023-07-02T03:11:33.033Z,0
2023-07-02T03:14:58.137Z,0
2023-07-02T03:18:23.313Z,0
2023-07-02T03:21:48.475Z,0
2023-07-02T03:25:13.646Z,0
2023-07-02T03:28:38.829Z,0
2023-07-02T03:32:03.986Z,0
2023-07-02T03:35:29.157Z,0
2023-07-02T03:38:54.350Z,0
2023-07-02T03:42:19.497Z,0
2023-07-02T03:45:44.661Z,0
2023-07-02T03:49:09.782Z,0
2023-07-02T03:52:34.946Z,0
2023-07-02T03:56:00.149Z,0
2023-07-02T03:59:25.309Z,0
2023-07-02T04:02:50.558Z,0
2023-07-02T04:06:15.659Z,0
2023-07-02T04:09:40.834Z,0
2023-07-02T04:13:05.997Z,0
2023-07-02T04:16:31.228Z,0
2023-07-02T04:19:56.385Z,0
2023-07-02T04:23:21.523Z,6
2023-07-02T04:27:03.083Z,6
2023-07-02T04:30:11.865Z,11
2023-07-02T04:33:37.160Z,11
2023-07-02T04:37:02.204Z,11
2023-07-02T04:40:27.330Z,6
2023-07-02T04:43:52.496Z,6
2023-07-02T04:47:17.673Z,6
2023-07-02T04:50:42.825Z,6
2023-07-02T04:54:08.021Z,23
2023-07-02T04:57:33.178Z,28
2023-07-02T05:00:58.375Z,45
2023-07-02T05:04:23.591Z,56
2023-07-02T05:07:48.714Z,56
2023-07-02T05:11:13.947Z,17
2023-07-02T05:14:39.102Z,56
2023-07-02T05:18:04.324Z,39
2023-07-02T05:21:29.421Z,23
2023-07-02T05:24:54.614Z,23
2023-07-02T05:28:19.792Z,23
2023-07-02T05:31:45.080Z,23
2023-07-02T05:35:10.107Z,28
2023-07-02T05:38:35.282Z,45
2023-07-02T05:42:00.458Z,23
2023-07-02T05:45:25.664Z,17
2023-07-02T05:48:50.802Z,23
2023-07-02T05:52:16.031Z,17
2023-07-02T05:55:41.195Z,17
2023-07-02T05:59:06.351Z,17
2023-07-02T06:02:31.632Z,17
2023-07-02T06:05:56.824Z,11
2023-07-02T06:09:22.238Z,23
2023-07-02T06:12:47.434Z,28
2023-07-02T06:16:13.173Z,56
2023-07-02T06:19:38.471Z,39
2023-07-02T06:23:03.768Z,45
2023-07-02T06:26:29.066Z,39
2023-07-02T06:29:54.460Z,34
2023-07-02T06:33:19.772Z,34
2023-07-02T06:36:46.736Z,34
2023-07-02T06:40:12.058Z,34
2023-07-02T06:43:37.319Z,34
2023-07-02T06:47:02.610Z,34
2023-07-02T06:50:27.785Z,34
2023-07-02T06:53:52.973Z,34
2023-07-02T06:57:18.176Z,28
2023-07-02T07:00:43.354Z,23
2023-07-02T07:04:08.559Z,28
2023-07-02T07:07:34.341Z,45
2023-07-02T07:10:59.546Z,34
2023-07-02T07:14:24.810Z,34
2023-07-02T07:17:50.003Z,34
2023-07-02T07:21:15.095Z,39
2023-07-02T07:24:40.461Z,34
2023-07-02T07:28:05.697Z,45
2023-07-02T07:31:30.907Z,39
2023-07-02T07:34:56.102Z,28
2023-07-02T07:38:21.379Z,34
2023-07-02T07:41:46.556Z,34
2023-07-02T07:45:11.750Z,45
2023-07-02T07:48:36.897Z,45
2023-07-02T07:52:02.094Z,45
2023-07-02T07:55:27.340Z,39
2023-07-02T07:58:52.572Z,45
2023-07-02T08:02:17.880Z,107
2023-07-02T08:05:43.021Z,124
2023-07-02T08:09:08.181Z,90
2023-07-02T08:12:33.358Z,73
2023-07-02T08:15:58.627Z,68
2023-07-02T08:19:24.790Z,141
2023-07-02T08:22:49.054Z,73
2023-07-02T08:26:14.289Z,146
2023-07-02T08:29:39.500Z,45
2023-07-02T08:33:04.722Z,124
2023-07-02T08:36:29.865Z,73
2023-07-02T08:39:55.007Z,129
2023-07-02T08:43:20.225Z,56
2023-07-02T08:46:45.380Z,107
2023-07-02T08:50:10.566Z,39
2023-07-02T08:53:35.751Z,45
2023-07-02T08:57:00.898Z,107
2023-07-02T09:00:26.172Z,129
2023-07-02T09:03:51.393Z,56
2023-07-02T09:07:16.567Z,96
2023-07-02T09:10:41.845Z,90
2023-07-02T09:14:07.185Z,107
2023-07-02T09:17:32.427Z,68
2023-07-02T09:20:57.571Z,90
2023-07-02T09:24:22.738Z,146
2023-07-02T09:27:47.933Z,135
2023-07-02T09:31:13.119Z,135
2023-07-02T09:34:38.477Z,129
2023-07-02T09:38:03.497Z,45
2023-07-02T09:41:28.635Z,45
2023-07-02T09:44:53.850Z,124
2023-07-02T09:48:19.019Z,107
2023-07-02T09:51:44.202Z,135
2023-07-02T09:55:09.373Z,73
2023-07-02T09:58:34.604Z,39
2023-07-02T10:01:59.851Z,39
2023-07-02T10:05:24.991Z,56
2023-07-02T10:08:50.135Z,62
2023-07-02T10:12:15.289Z,56
2023-07-02T10:15:40.463Z,56
2023-07-02T10:19:05.651Z,68
2023-07-02T10:22:30.805Z,174
2023-07-02T10:25:56.019Z,169
2023-07-02T10:29:21.189Z,73
2023-07-02T10:32:46.395Z,56
2023-07-02T10:36:11.590Z,73
2023-07-02T10:39:36.728Z,79
2023-07-02T10:43:01.916Z,51
2023-07-02T10:46:27.110Z,152
2023-07-02T10:49:52.264Z,84
2023-07-02T10:53:17.491Z,90
2023-07-02T10:56:42.655Z,135
2023-07-02T11:00:07.822Z,62
2023-07-02T11:03:33.066Z,68
2023-07-02T11:06:58.159Z,73
2023-07-02T11:10:23.394Z,73
2023-07-02T11:13:48.536Z,68
2023-07-02T11:17:13.833Z,84
2023-07-02T11:20:38.931Z,158
2023-07-02T11:24:04.101Z,45
2023-07-02T11:27:29.293Z,45
2023-07-02T11:30:54.468Z,51
2023-07-02T11:34:20.128Z,84
2023-07-02T11:37:44.802Z,107
2023-07-02T11:41:10.012Z,79
2023-07-02T11:44:35.214Z,73
2023-07-02T11:48:00.407Z,62
2023-07-02T11:51:25.507Z,84
2023-07-02T11:54:50.686Z,62
2023-07-02T11:58:15.859Z,90
2023-07-02T12:01:41.085Z,39
2023-07-02T12:05:07.191Z,56
2023-07-02T12:08:31.364Z,34
2023-07-02T12:11:56.536Z,34
2023-07-02T12:15:21.714Z,45
2023-07-02T12:18:46.902Z,34
2023-07-02T12:22:12.046Z,34
2023-07-02T12:25:37.222Z,34
2023-07-02T12:29:02.410Z,56
2023-07-02T12:32:27.580Z,62
2023-07-02T12:35:52.890Z,45
2023-07-02T12:39:19.696Z,68
2023-07-02T12:42:43.110Z,45
2023-07-02T12:46:08.420Z,39
2023-07-02T12:49:33.437Z,45
2023-07-02T12:52:58.665Z,62
2023-07-02T12:56:23.791Z,124
2023-07-02T12:59:48.993Z,68
2023-07-02T13:03:14.153Z,45
2023-07-02T13:06:39.289Z,39
2023-07-02T13:10:04.493Z,39
2023-07-02T13:13:30.124Z,39
2023-07-02T13:16:54.824Z,51
2023-07-02T13:20:19.951Z,39
2023-07-02T13:23:45.125Z,56
2023-07-02T13:27:10.330Z,45
2023-07-02T13:30:35.470Z,39
2023-07-02T13:34:00.646Z,45
2023-07-02T13:37:25.806Z,62
2023-07-02T13:40:50.968Z,45
2023-07-02T13:44:16.172Z,73
2023-07-02T13:47:41.338Z,96
2023-07-02T13:51:06.473Z,84
2023-07-02T13:54:31.645Z,73
2023-07-02T13:57:56.815Z,45
2023-07-02T14:01:22.006Z,34
2023-07-02T14:04:47.167Z,34
2023-07-02T14:08:12.304Z,45
2023-07-02T14:11:37.471Z,39
2023-07-02T14:15:02.644Z,34
2023-07-02T14:18:27.853Z,28
2023-07-02T14:21:52.993Z,34
2023-07-02T14:25:28.494Z,51
2023-07-02T14:28:43.325Z,56
2023-07-02T14:32:08.524Z,39
2023-07-02T14:35:33.750Z,39
2023-07-02T14:38:58.899Z,68
2023-07-02T14:42:24.068Z,34
2023-07-02T14:45:49.613Z,45
2023-07-02T14:49:14.444Z,39
2023-07-02T14:52:39.663Z,39
2023-07-02T14:56:04.798Z,34
2023-07-02T14:59:29.981Z,28
2023-07-02T15:02:55.315Z,28
2023-07-02T15:06:20.357Z,28
2023-07-02T15:09:45.552Z,28
2023-07-02T15:47:38.840Z,6
2023-07-02T15:51:03.971Z,28
2023-07-02T15:54:29.162Z,34
2023-07-02T15:57:54.330Z,34
2023-07-02T16:01:19.483Z,34
2023-07-02T16:04:44.812Z,23
2023-07-02T16:08:09.848Z,23
2023-07-02T16:11:35.024Z,23
2023-07-02T16:15:00.223Z,28
2023-07-02T16:18:25.417Z,39
2023-07-02T16:21:50.638Z,34
2023-07-02T16:25:15.793Z,17
2023-07-02T16:28:40.967Z,17
2023-07-02T16:32:06.141Z,17
2023-07-02T16:35:31.295Z,17
2023-07-02T16:38:56.507Z,23
2023-07-02T16:42:21.686Z,23
2023-07-02T16:45:46.995Z,17
2023-07-02T16:49:12.046Z,17
2023-07-02T16:52:37.228Z,17
2023-07-02T16:56:02.434Z,28
2023-07-02T16:59:27.590Z,11
2023-07-02T17:02:52.811Z,11
2023-07-02T17:06:17.915Z,11
2023-07-02T17:09:43.099Z,17
2023-07-02T17:13:08.317Z,23
2023-07-02T17:16:33.466Z,17
2023-07-02T17:19:58.654Z,17
2023-07-02T17:23:23.821Z,11
2023-07-02T17:26:49.154Z,6
2023-07-02T17:30:14.449Z,11
2023-07-02T17:33:39.658Z,11
2023-07-02T17:37:04.921Z,11
2023-07-02T17:40:30.618Z,17
2023-07-02T17:43:55.853Z,11
2023-07-02T17:47:21.127Z,6
2023-07-02T17:50:46.312Z,6
2023-07-02T17:54:11.540Z,6
2023-07-02T17:57:36.786Z,6
2023-07-02T18:01:02.515Z,6
2023-07-02T18:04:28.125Z,6
2023-07-02T18:07:55.185Z,6
2023-07-02T18:11:20.453Z,6
2023-07-02T18:14:45.813Z,6
2023-07-02T18:18:10.982Z,6
2023-07-02T18:21:36.271Z,6
2023-07-02T18:25:01.471Z,6
2023-07-02T18:28:27.616Z,0
2023-07-02T18:31:51.972Z,6
2023-07-02T18:35:17.225Z,0
2023-07-02T18:38:42.487Z,0
2023-07-02T18:42:07.715Z,6
2023-07-02T18:45:32.986Z,0
2023-07-02T18:48:58.184Z,0
2023-07-02T18:52:23.420Z,0
2023-07-02T18:55:48.821Z,0
2023-07-02T18:59:13.913Z,0
2023-07-02T19:02:39.301Z,0
2023-07-02T19:06:04.514Z,0
2023-07-02T19:09:29.774Z,0
2023-07-02T19:12:55.022Z,0
2023-07-02T19:16:20.314Z,0
2023-07-02T19:19:45.537Z,0
2023-07-02T19:23:10.821Z,0
2023-07-02T19:26:36.087Z,0
2023-07-02T19:30:01.355Z,0
2023-07-02T19:33:26.588Z,0
2023-07-02T19:36:51.848Z,0
2023-07-02T19:40:17.077Z,0
2023-07-02T19:43:42.345Z,0
2023-07-02T19:47:07.636Z,0
2023-07-02T19:50:32.856Z,0
2023-07-02T19:53:58.113Z,0
2023-07-02T19:57:23.332Z,0
2023-07-02T20:00:48.578Z,0
2023-07-02T20:04:14.050Z,0
2023-07-02T20:07:39.073Z,0
2023-07-02T20:11:04.314Z,0
2023-07-02T20:14:29.543Z,0
2023-07-02T20:17:54.838Z,0
2023-07-02T20:21:20.049Z,0
2023-07-02T20:24:45.270Z,0
2023-07-02T20:28:10.517Z,0
2023-07-02T20:31:35.837Z,0
2023-07-02T20:35:00.994Z,0
2023-07-02T20:38:26.285Z,0
2023-07-02T20:41:51.542Z,0
2023-07-02T20:45:16.797Z,0
2023-07-02T20:48:42.067Z,0
2023-07-02T20:52:07.330Z,0
2023-07-02T20:55:32.576Z,0
2023-07-02T20:58:57.777Z,0
2023-07-02T21:02:23.037Z,0
2023-07-02T21:05:48.489Z,0
2023-07-02T21:09:13.507Z,0
2023-07-02T21:12:38.753Z,0
2023-07-02T21:16:03.968Z,0
2023-07-02T21:19:29.196Z,0
2023-07-02T21:22:54.441Z,0
2023-07-02T21:26:19.699Z,0
2023-07-02T21:29:44.993Z,0
2023-07-02T21:33:10.230Z,0
2023-07-02T21:36:35.473Z,0
2023-07-02T21:40:00.697Z,0
2023-07-02T21:43:27.318Z,0
2023-07-02T21:46:51.279Z,0
2023-07-02T21:50:16.475Z,0
2023-07-02T21:53:41.741Z,0
2023-07-02T21:57:06.957Z,0
2023-07-02T22:00:32.183Z,0
2023-07-02T22:03:57.480Z,0
2023-07-02T22:07:22.676Z,0
2023-07-02T22:10:47.905Z,0
2023-07-02T22:14:13.127Z,0
2023-07-02T22:17:38.435Z,0
2023-07-02T22:21:03.623Z,0
2023-07-02T22:24:28.834Z,0
2023-07-02T22:27:54.063Z,0
2023-07-02T22:31:19.324Z,0
2023-07-02T22:34:44.546Z,0
2023-07-02T22:38:09.839Z,0
2023-07-02T22:41:35.044Z,0
2023-07-02T22:45:00.323Z,0
2023-07-02T22:48:25.565Z,0
2023-07-02T22:51:50.801Z,0
2023-07-02T22:55:16.083Z,0
2023-07-02T22:58:41.291Z,0
2023-07-02T23:02:06.567Z,0
2023-07-02T23:05:31.842Z,0
2023-07-02T23:08:57.070Z,0
2023-07-02T23:12:22.345Z,0
2023-07-02T23:15:47.648Z,0
2023-07-02T23:19:12.823Z,0
2023-07-02T23:22:38.070Z,0
2023-07-02T23:26:03.340Z,0
2023-07-02T23:29:28.598Z,0
2023-07-02T23:32:53.844Z,0
2023-07-02T23:36:19.063Z,0
2023-07-02T23:39:44.303Z,0
2023-07-02T23:43:09.623Z,0
2023-07-02T23:46:34.821Z,0
2023-07-02T23:50:00.014Z,0
2023-07-02T23:53:25.259Z,0
2023-07-02T23:56:50.476Z,0
